SKSM/SMR METAR and TAF weather

Enter ICAO airport designator
Station Type Date Time Source
SKSM METAR 2019/12/14 11:00 UTC NOAA

SKSM 141100Z 03004KT 9999 FEW020 SCT200 24/20 A2984


Station Type Date Time Source
SKSM Decoded METAR 2019/12/14 11:00 UTC NOAA

Santa Marta / Simon Bolivar, Colombia (SKSM) 11-08N 074-14W 14M
Dec 14, 2019 - 06:00 AM EST / 2019.12.14 1100 UTC
Wind: from the NNE (030 degrees) at 5 MPH (4 KT):0
Visibility: greater than 7 mile(s):0
Sky conditions: partly cloudy
Temperature: 75 F (24 C)
Dew Point: 68 F (20 C)
Relative Humidity: 78%
Pressure (altimeter): 29.84 in. Hg (1010 hPa)
ob: SKSM 141100Z 03004KT 9999 FEW020 SCT200 24/20 A2984
cycle: 11

Station Type Date Time Source
SKSM TAF UTC NOAA

Error!

Example: see airport list